Terminal Aerodrome Forecast
Issued by NWS

Home | Current Version | Previous Version | Text Only | Print | Product List | Glossary On
Versions: 1 2 3 4 5 6 7 8 9 10 11 12 13 14 15 16 17 18 19 20 21 22 23 24 25 26 27 28 29 30 31 32 33
000
FTUS46 KLOX 191405 AAB
TAFLAX
TAF AMD
KLAX 191405Z 1914/2018 22009KT 4SM -RA BKN007 OVC015
     FM191600 23015KT P6SM VCSH BKN025 BKN050
     FM192000 26017G25KT P6SM SCT025 BKN050
     FM200400 27010KT P6SM SCT025 BKN050
     FM201000 10006KT P6SM VCSH SCT020 OVC030
     FM201500 15017G25KT 4SM RA BR OVC020=

USA.gov is the U.S. government's official web portal to all federal, state and local government web resources and services.